sensor_id;sensor_type;location;lat;lon;timestamp;P1;durP1;ratioP1;P2;durP2;ratioP2
11004;SDS011;5555;59.622;16.556;2023-06-19T00:01:47;14.57;;;12.63;;
11004;SDS011;5555;59.622;16.556;2023-06-19T00:04:13;13.67;;;12.17;;
11004;SDS011;5555;59.622;16.556;2023-06-19T00:06:38;13.10;;;11.73;;
11004;SDS011;5555;59.622;16.556;2023-06-19T00:09:04;12.77;;;10.97;;
11004;SDS011;5555;59.622;16.556;2023-06-19T00:11:31;13.57;;;11.40;;
11004;SDS011;5555;59.622;16.556;2023-06-19T00:13:57;13.23;;;11.03;;
11004;SDS011;5555;59.622;16.556;2023-06-19T00:16:23;13.77;;;12.37;;
11004;SDS011;5555;59.622;16.556;2023-06-19T00:18:50;13.53;;;12.03;;
11004;SDS011;5555;59.622;16.556;2023-06-19T00:21:16;9.43;;;8.43;;
11004;SDS011;5555;59.622;16.556;2023-06-19T00:23:42;16.10;;;11.83;;
11004;SDS011;5555;59.622;16.556;2023-06-19T00:26:08;13.77;;;11.80;;
11004;SDS011;5555;59.622;16.556;2023-06-19T00:28:33;14.10;;;11.80;;
11004;SDS011;5555;59.622;16.556;2023-06-19T00:30:59;13.33;;;11.93;;
11004;SDS011;5555;59.622;16.556;2023-06-19T00:33:25;15.70;;;12.33;;
11004;SDS011;5555;59.622;16.556;2023-06-19T00:35:50;17.70;;;12.77;;
11004;SDS011;5555;59.622;16.556;2023-06-19T00:38:17;13.57;;;12.20;;
11004;SDS011;5555;59.622;16.556;2023-06-19T00:40:42;14.10;;;12.67;;
11004;SDS011;5555;59.622;16.556;2023-06-19T00:43:08;13.83;;;12.07;;
11004;SDS011;5555;59.622;16.556;2023-06-19T00:45:36;14.40;;;12.53;;
11004;SDS011;5555;59.622;16.556;2023-06-19T00:48:02;14.30;;;12.80;;
11004;SDS011;5555;59.622;16.556;2023-06-19T00:50:29;15.47;;;13.87;;
11004;SDS011;5555;59.622;16.556;2023-06-19T00:52:56;15.17;;;13.57;;
11004;SDS011;5555;59.622;16.556;2023-06-19T00:55:22;15.23;;;13.73;;
11004;SDS011;5555;59.622;16.556;2023-06-19T00:57:52;16.77;;;14.03;;
11004;SDS011;5555;59.622;16.556;2023-06-19T01:00:18;16.43;;;14.73;;
11004;SDS011;5555;59.622;16.556;2023-06-19T01:02:43;16.30;;;14.30;;
11004;SDS011;5555;59.622;16.556;2023-06-19T01:05:09;16.23;;;14.63;;
11004;SDS011;5555;59.622;16.556;2023-06-19T01:07:58;16.60;;;14.90;;
11004;SDS011;5555;59.622;16.556;2023-06-19T01:10:36;16.37;;;14.87;;
11004;SDS011;5555;59.622;16.556;2023-06-19T01:13:07;18.90;;;14.97;;
11004;SDS011;5555;59.622;16.556;2023-06-19T01:15:37;17.43;;;15.60;;
11004;SDS011;5555;59.622;16.556;2023-06-19T01:18:05;17.57;;;15.67;;
11004;SDS011;5555;59.622;16.556;2023-06-19T01:20:31;17.17;;;15.63;;
11004;SDS011;5555;59.622;16.556;2023-06-19T01:23:04;17.87;;;16.03;;
11004;SDS011;5555;59.622;16.556;2023-06-19T01:25:34;17.57;;;15.87;;
11004;SDS011;5555;59.622;16.556;2023-06-19T01:28:00;19.47;;;17.47;;
11004;SDS011;5555;59.622;16.556;2023-06-19T01:30:31;19.13;;;17.33;;
11004;SDS011;5555;59.622;16.556;2023-06-19T01:32:58;19.33;;;17.50;;
11004;SDS011;5555;59.622;16.556;2023-06-19T01:35:33;18.83;;;17.03;;
11004;SDS011;5555;59.622;16.556;2023-06-19T01:38:00;19.57;;;17.67;;
11004;SDS011;5555;59.622;16.556;2023-06-19T01:40:27;18.60;;;16.70;;
11004;SDS011;5555;59.622;16.556;2023-06-19T01:42:56;18.73;;;17.00;;
11004;SDS011;5555;59.622;16.556;2023-06-19T01:45:26;18.67;;;16.83;;
11004;SDS011;5555;59.622;16.556;2023-06-19T01:47:53;20.93;;;17.43;;
11004;SDS011;5555;59.622;16.556;2023-06-19T01:50:19;20.07;;;17.43;;
11004;SDS011;5555;59.622;16.556;2023-06-19T01:52:48;19.47;;;17.47;;
11004;SDS011;5555;59.622;16.556;2023-06-19T01:55:15;19.87;;;17.37;;
11004;SDS011;5555;59.622;16.556;2023-06-19T01:57:41;19.63;;;17.73;;
11004;SDS011;5555;59.622;16.556;2023-06-19T02:00:06;20.27;;;18.47;;
11004;SDS011;5555;59.622;16.556;2023-06-19T02:02:33;20.27;;;18.30;;
11004;SDS011;5555;59.622;16.556;2023-06-19T02:04:59;23.53;;;19.43;;
11004;SDS011;5555;59.622;16.556;2023-06-19T02:07:24;20.63;;;18.40;;
11004;SDS011;5555;59.622;16.556;2023-06-19T02:09:50;21.23;;;18.97;;
11004;SDS011;5555;59.622;16.556;2023-06-19T02:12:16;21.17;;;19.03;;
11004;SDS011;5555;59.622;16.556;2023-06-19T02:14:41;22.30;;;19.90;;
11004;SDS011;5555;59.622;16.556;2023-06-19T02:17:07;20.83;;;18.67;;
11004;SDS011;5555;59.622;16.556;2023-06-19T02:19:32;21.30;;;19.30;;
11004;SDS011;5555;59.622;16.556;2023-06-19T02:21:58;21.63;;;19.53;;
11004;SDS011;5555;59.622;16.556;2023-06-19T02:24:24;22.73;;;20.40;;
11004;SDS011;5555;59.622;16.556;2023-06-19T02:26:49;23.10;;;20.80;;
11004;SDS011;5555;59.622;16.556;2023-06-19T02:29:15;22.93;;;20.20;;
11004;SDS011;5555;59.622;16.556;2023-06-19T02:31:41;23.13;;;20.93;;
11004;SDS011;5555;59.622;16.556;2023-06-19T02:34:07;23.17;;;20.60;;
11004;SDS011;5555;59.622;16.556;2023-06-19T02:36:34;22.83;;;20.70;;
11004;SDS011;5555;59.622;16.556;2023-06-19T02:39:00;22.17;;;19.87;;
11004;SDS011;5555;59.622;16.556;2023-06-19T02:41:26;22.47;;;20.43;;
11004;SDS011;5555;59.622;16.556;2023-06-19T02:43:52;23.57;;;21.20;;
11004;SDS011;5555;59.622;16.556;2023-06-19T02:46:17;22.60;;;20.53;;
11004;SDS011;5555;59.622;16.556;2023-06-19T02:48:43;23.53;;;21.40;;
11004;SDS011;5555;59.622;16.556;2023-06-19T02:51:09;23.03;;;20.77;;
11004;SDS011;5555;59.622;16.556;2023-06-19T02:53:34;24.23;;;22.03;;
11004;SDS011;5555;59.622;16.556;2023-06-19T02:56:00;23.97;;;21.83;;
11004;SDS011;5555;59.622;16.556;2023-06-19T02:58:26;23.37;;;21.27;;
11004;SDS011;5555;59.622;16.556;2023-06-19T03:00:54;23.93;;;21.53;;
11004;SDS011;5555;59.622;16.556;2023-06-19T03:03:19;26.10;;;23.47;;
11004;SDS011;5555;59.622;16.556;2023-06-19T03:05:45;24.73;;;22.63;;
11004;SDS011;5555;59.622;16.556;2023-06-19T03:08:10;24.93;;;22.73;;
11004;SDS011;5555;59.622;16.556;2023-06-19T03:10:36;25.63;;;23.23;;
11004;SDS011;5555;59.622;16.556;2023-06-19T03:13:02;26.13;;;23.80;;
11004;SDS011;5555;59.622;16.556;2023-06-19T03:15:28;26.30;;;23.73;;
11004;SDS011;5555;59.622;16.556;2023-06-19T03:17:53;24.73;;;22.73;;
11004;SDS011;5555;59.622;16.556;2023-06-19T03:20:19;24.30;;;22.30;;
11004;SDS011;5555;59.622;16.556;2023-06-19T03:22:45;25.77;;;23.47;;
11004;SDS011;5555;59.622;16.556;2023-06-19T03:25:11;24.83;;;22.50;;
11004;SDS011;5555;59.622;16.556;2023-06-19T03:27:37;23.57;;;21.57;;
11004;SDS011;5555;59.622;16.556;2023-06-19T03:30:03;23.67;;;21.83;;
11004;SDS011;5555;59.622;16.556;2023-06-19T03:32:33;23.53;;;21.47;;
11004;SDS011;5555;59.622;16.556;2023-06-19T03:34:59;24.47;;;22.40;;
11004;SDS011;5555;59.622;16.556;2023-06-19T03:37:26;24.63;;;22.53;;
11004;SDS011;5555;59.622;16.556;2023-06-19T03:39:52;23.97;;;22.03;;
11004;SDS011;5555;59.622;16.556;2023-06-19T03:42:17;24.43;;;22.07;;
11004;SDS011;5555;59.622;16.556;2023-06-19T03:44:43;24.27;;;22.10;;
11004;SDS011;5555;59.622;16.556;2023-06-19T03:47:08;24.13;;;22.20;;
11004;SDS011;5555;59.622;16.556;2023-06-19T03:49:34;25.23;;;23.07;;
11004;SDS011;5555;59.622;16.556;2023-06-19T03:52:00;25.77;;;23.47;;
11004;SDS011;5555;59.622;16.556;2023-06-19T03:54:26;28.67;;;26.03;;
11004;SDS011;5555;59.622;16.556;2023-06-19T03:56:52;28.23;;;25.73;;
11004;SDS011;5555;59.622;16.556;2023-06-19T03:59:18;29.10;;;26.50;;
11004;SDS011;5555;59.622;16.556;2023-06-19T04:01:43;28.97;;;26.30;;
11004;SDS011;5555;59.622;16.556;2023-06-19T04:04:09;30.60;;;27.73;;
11004;SDS011;5555;59.622;16.556;2023-06-19T04:06:34;31.23;;;28.17;;
11004;SDS011;5555;59.622;16.556;2023-06-19T04:09:00;29.77;;;26.97;;
11004;SDS011;5555;59.622;16.556;2023-06-19T04:11:26;32.00;;;29.10;;
11004;SDS011;5555;59.622;16.556;2023-06-19T04:13:51;29.53;;;26.97;;
11004;SDS011;5555;59.622;16.556;2023-06-19T04:16:17;31.13;;;28.23;;
11004;SDS011;5555;59.622;16.556;2023-06-19T04:18:42;31.30;;;28.57;;
11004;SDS011;5555;59.622;16.556;2023-06-19T04:21:08;31.63;;;28.63;;
11004;SDS011;5555;59.622;16.556;2023-06-19T04:23:34;30.27;;;27.53;;
11004;SDS011;5555;59.622;16.556;2023-06-19T04:25:59;29.77;;;26.93;;
11004;SDS011;5555;59.622;16.556;2023-06-19T04:28:25;28.33;;;25.70;;
11004;SDS011;5555;59.622;16.556;2023-06-19T04:30:51;27.43;;;25.00;;
11004;SDS011;5555;59.622;16.556;2023-06-19T04:33:25;28.00;;;25.43;;
11004;SDS011;5555;59.622;16.556;2023-06-19T04:35:54;25.70;;;23.43;;
11004;SDS011;5555;59.622;16.556;2023-06-19T04:38:20;20.83;;;19.07;;
11004;SDS011;5555;59.622;16.556;2023-06-19T04:40:49;27.83;;;25.23;;
11004;SDS011;5555;59.622;16.556;2023-06-19T04:43:18;27.23;;;24.70;;
11004;SDS011;5555;59.622;16.556;2023-06-19T04:45:44;27.10;;;24.53;;
11004;SDS011;5555;59.622;16.556;2023-06-19T04:48:09;26.47;;;23.93;;
11004;SDS011;5555;59.622;16.556;2023-06-19T04:50:36;25.37;;;23.10;;
11004;SDS011;5555;59.622;16.556;2023-06-19T04:53:01;25.80;;;23.20;;
11004;SDS011;5555;59.622;16.556;2023-06-19T04:55:27;24.57;;;22.40;;
11004;SDS011;5555;59.622;16.556;2023-06-19T04:57:53;24.87;;;22.60;;
11004;SDS011;5555;59.622;16.556;2023-06-19T05:00:19;22.73;;;20.67;;
11004;SDS011;5555;59.622;16.556;2023-06-19T05:02:46;23.27;;;21.23;;
11004;SDS011;5555;59.622;16.556;2023-06-19T05:05:15;20.60;;;18.80;;
11004;SDS011;5555;59.622;16.556;2023-06-19T05:07:41;20.83;;;19.03;;
11004;SDS011;5555;59.622;16.556;2023-06-19T05:10:07;19.93;;;18.23;;
11004;SDS011;5555;59.622;16.556;2023-06-19T05:12:34;18.23;;;16.60;;
11004;SDS011;5555;59.622;16.556;2023-06-19T05:15:00;19.57;;;17.67;;
11004;SDS011;5555;59.622;16.556;2023-06-19T05:17:26;19.23;;;17.63;;
11004;SDS011;5555;59.622;16.556;2023-06-19T05:19:51;17.90;;;16.30;;
11004;SDS011;5555;59.622;16.556;2023-06-19T05:22:17;17.13;;;15.53;;
11004;SDS011;5555;59.622;16.556;2023-06-19T05:24:46;17.17;;;15.57;;
11004;SDS011;5555;59.622;16.556;2023-06-19T05:27:12;19.53;;;17.67;;
11004;SDS011;5555;59.622;16.556;2023-06-19T05:29:38;18.37;;;16.67;;
11004;SDS011;5555;59.622;16.556;2023-06-19T05:32:03;19.03;;;17.20;;
11004;SDS011;5555;59.622;16.556;2023-06-19T05:34:29;18.80;;;16.90;;
11004;SDS011;5555;59.622;16.556;2023-06-19T05:36:55;18.53;;;16.67;;
11004;SDS011;5555;59.622;16.556;2023-06-19T05:39:21;17.97;;;16.17;;
11004;SDS011;5555;59.622;16.556;2023-06-19T05:41:46;18.27;;;16.60;;
11004;SDS011;5555;59.622;16.556;2023-06-19T05:44:12;18.37;;;16.63;;
11004;SDS011;5555;59.622;16.556;2023-06-19T05:46:41;18.97;;;17.17;;
11004;SDS011;5555;59.622;16.556;2023-06-19T05:49:07;16.83;;;15.33;;
11004;SDS011;5555;59.622;16.556;2023-06-19T05:51:33;16.90;;;15.30;;
11004;SDS011;5555;59.622;16.556;2023-06-19T05:53:59;15.67;;;14.13;;
11004;SDS011;5555;59.622;16.556;2023-06-19T05:56:28;16.97;;;15.57;;
11004;SDS011;5555;59.622;16.556;2023-06-19T05:58:58;16.03;;;14.57;;
11004;SDS011;5555;59.622;16.556;2023-06-19T06:01:25;15.10;;;13.80;;
11004;SDS011;5555;59.622;16.556;2023-06-19T06:03:52;16.00;;;14.70;;
11004;SDS011;5555;59.622;16.556;2023-06-19T06:06:19;14.80;;;13.50;;
11004;SDS011;5555;59.622;16.556;2023-06-19T06:08:44;16.20;;;14.60;;
11004;SDS011;5555;59.622;16.556;2023-06-19T06:11:10;14.37;;;13.07;;
11004;SDS011;5555;59.622;16.556;2023-06-19T06:13:35;15.00;;;13.70;;
11004;SDS011;5555;59.622;16.556;2023-06-19T06:16:01;15.37;;;13.93;;
11004;SDS011;5555;59.622;16.556;2023-06-19T06:18:27;13.77;;;12.67;;
11004;SDS011;5555;59.622;16.556;2023-06-19T06:20:52;15.83;;;14.43;;
11004;SDS011;5555;59.622;16.556;2023-06-19T06:23:18;15.07;;;13.73;;
11004;SDS011;5555;59.622;16.556;2023-06-19T06:25:43;13.87;;;12.60;;
11004;SDS011;5555;59.622;16.556;2023-06-19T06:28:10;13.20;;;12.10;;
11004;SDS011;5555;59.622;16.556;2023-06-19T06:30:36;14.97;;;13.57;;
11004;SDS011;5555;59.622;16.556;2023-06-19T06:33:03;15.43;;;13.67;;
11004;SDS011;5555;59.622;16.556;2023-06-19T06:35:29;14.87;;;13.57;;
11004;SDS011;5555;59.622;16.556;2023-06-19T06:37:55;13.73;;;12.47;;
11004;SDS011;5555;59.622;16.556;2023-06-19T06:40:20;12.43;;;11.33;;
11004;SDS011;5555;59.622;16.556;2023-06-19T06:42:46;14.00;;;12.73;;
11004;SDS011;5555;59.622;16.556;2023-06-19T06:45:12;12.50;;;11.30;;
11004;SDS011;5555;59.622;16.556;2023-06-19T06:47:38;12.90;;;11.83;;
11004;SDS011;5555;59.622;16.556;2023-06-19T06:50:05;13.40;;;12.30;;
11004;SDS011;5555;59.622;16.556;2023-06-19T06:52:32;12.87;;;11.83;;
11004;SDS011;5555;59.622;16.556;2023-06-19T06:54:57;14.17;;;12.97;;
11004;SDS011;5555;59.622;16.556;2023-06-19T06:57:23;14.57;;;13.27;;
11004;SDS011;5555;59.622;16.556;2023-06-19T06:59:49;13.73;;;12.53;;
11004;SDS011;5555;59.622;16.556;2023-06-19T07:02:15;14.40;;;13.20;;
11004;SDS011;5555;59.622;16.556;2023-06-19T07:04:41;15.27;;;14.03;;
11004;SDS011;5555;59.622;16.556;2023-06-19T07:07:06;14.33;;;13.13;;
11004;SDS011;5555;59.622;16.556;2023-06-19T07:09:33;13.07;;;12.03;;
11004;SDS011;5555;59.622;16.556;2023-06-19T07:11:59;13.83;;;12.73;;
11004;SDS011;5555;59.622;16.556;2023-06-19T07:14:26;14.40;;;13.20;;
11004;SDS011;5555;59.622;16.556;2023-06-19T07:16:52;13.10;;;12.10;;
11004;SDS011;5555;59.622;16.556;2023-06-19T07:19:18;13.67;;;12.47;;
11004;SDS011;5555;59.622;16.556;2023-06-19T07:21:44;14.37;;;13.00;;
11004;SDS011;5555;59.622;16.556;2023-06-19T07:24:09;13.97;;;12.77;;
11004;SDS011;5555;59.622;16.556;2023-06-19T07:26:35;13.43;;;12.23;;
11004;SDS011;5555;59.622;16.556;2023-06-19T07:29:01;14.57;;;13.27;;
11004;SDS011;5555;59.622;16.556;2023-06-19T07:31:26;13.47;;;12.37;;
11004;SDS011;5555;59.622;16.556;2023-06-19T07:33:52;13.60;;;12.50;;
11004;SDS011;5555;59.622;16.556;2023-06-19T07:36:18;13.70;;;12.50;;
11004;SDS011;5555;59.622;16.556;2023-06-19T07:38:43;12.00;;;11.00;;
11004;SDS011;5555;59.622;16.556;2023-06-19T07:41:10;13.23;;;11.50;;
11004;SDS011;5555;59.622;16.556;2023-06-19T07:43:36;12.73;;;11.73;;
11004;SDS011;5555;59.622;16.556;2023-06-19T07:46:02;12.87;;;11.87;;
11004;SDS011;5555;59.622;16.556;2023-06-19T07:48:28;12.37;;;11.20;;
11004;SDS011;5555;59.622;16.556;2023-06-19T07:50:54;12.23;;;11.13;;
11004;SDS011;5555;59.622;16.556;2023-06-19T07:53:20;11.80;;;10.80;;
11004;SDS011;5555;59.622;16.556;2023-06-19T07:55:45;12.13;;;11.13;;
11004;SDS011;5555;59.622;16.556;2023-06-19T07:58:11;11.37;;;10.40;;
11004;SDS011;5555;59.622;16.556;2023-06-19T08:00:37;11.40;;;10.37;;
11004;SDS011;5555;59.622;16.556;2023-06-19T08:03:03;11.43;;;10.53;;
11004;SDS011;5555;59.622;16.556;2023-06-19T08:05:29;11.80;;;10.83;;
11004;SDS011;5555;59.622;16.556;2023-06-19T08:07:55;11.90;;;10.90;;
11004;SDS011;5555;59.622;16.556;2023-06-19T08:10:22;12.50;;;11.20;;
11004;SDS011;5555;59.622;16.556;2023-06-19T08:12:47;11.70;;;10.70;;
11004;SDS011;5555;59.622;16.556;2023-06-19T08:15:13;11.37;;;10.37;;
11004;SDS011;5555;59.622;16.556;2023-06-19T08:17:39;11.27;;;10.37;;
11004;SDS011;5555;59.622;16.556;2023-06-19T08:20:05;11.10;;;10.07;;
11004;SDS011;5555;59.622;16.556;2023-06-19T08:22:32;10.27;;;9.47;;
11004;SDS011;5555;59.622;16.556;2023-06-19T08:24:58;10.00;;;9.10;;
11004;SDS011;5555;59.622;16.556;2023-06-19T08:27:23;10.57;;;9.63;;
11004;SDS011;5555;59.622;16.556;2023-06-19T08:29:49;10.23;;;9.37;;
11004;SDS011;5555;59.622;16.556;2023-06-19T08:32:15;11.00;;;10.00;;
11004;SDS011;5555;59.622;16.556;2023-06-19T08:34:41;11.13;;;9.77;;
11004;SDS011;5555;59.622;16.556;2023-06-19T08:37:07;10.03;;;9.07;;
11004;SDS011;5555;59.622;16.556;2023-06-19T08:39:33;9.40;;;8.70;;
11004;SDS011;5555;59.622;16.556;2023-06-19T08:42:00;9.07;;;8.37;;
11004;SDS011;5555;59.622;16.556;2023-06-19T08:44:26;9.97;;;9.07;;
11004;SDS011;5555;59.622;16.556;2023-06-19T08:46:52;10.67;;;9.63;;
11004;SDS011;5555;59.622;16.556;2023-06-19T08:49:17;9.83;;;9.03;;
11004;SDS011;5555;59.622;16.556;2023-06-19T08:51:43;10.47;;;9.67;;
11004;SDS011;5555;59.622;16.556;2023-06-19T08:54:09;10.20;;;9.23;;
11004;SDS011;5555;59.622;16.556;2023-06-19T08:56:34;9.97;;;9.07;;
11004;SDS011;5555;59.622;16.556;2023-06-19T08:59:15;14.50;;;9.83;;
11004;SDS011;5555;59.622;16.556;2023-06-19T09:04:18;9.33;;;8.53;;
11004;SDS011;5555;59.622;16.556;2023-06-19T09:06:48;8.27;;;7.37;;
11004;SDS011;5555;59.622;16.556;2023-06-19T09:09:22;8.50;;;7.57;;
11004;SDS011;5555;59.622;16.556;2023-06-19T09:14:35;8.37;;;7.77;;
11004;SDS011;5555;59.622;16.556;2023-06-19T09:17:03;8.23;;;7.53;;
11004;SDS011;5555;59.622;16.556;2023-06-19T09:19:30;8.20;;;7.50;;
11004;SDS011;5555;59.622;16.556;2023-06-19T09:22:03;10.63;;;9.00;;
11004;SDS011;5555;59.622;16.556;2023-06-19T09:24:33;9.37;;;8.53;;
11004;SDS011;5555;59.622;16.556;2023-06-19T09:29:39;9.47;;;8.57;;
11004;SDS011;5555;59.622;16.556;2023-06-19T09:32:18;10.10;;;9.20;;
11004;SDS011;5555;59.622;16.556;2023-06-19T09:34:46;9.57;;;8.77;;
11004;SDS011;5555;59.622;16.556;2023-06-19T09:37:12;10.50;;;9.50;;
11004;SDS011;5555;59.622;16.556;2023-06-19T09:39:39;9.27;;;8.47;;
11004;SDS011;5555;59.622;16.556;2023-06-19T09:42:08;9.80;;;8.93;;
11004;SDS011;5555;59.622;16.556;2023-06-19T09:44:39;9.43;;;8.63;;
11004;SDS011;5555;59.622;16.556;2023-06-19T09:47:14;9.93;;;9.13;;
11004;SDS011;5555;59.622;16.556;2023-06-19T09:49:44;10.70;;;9.70;;
11004;SDS011;5555;59.622;16.556;2023-06-19T09:52:22;11.03;;;9.93;;
11004;SDS011;5555;59.622;16.556;2023-06-19T09:54:52;10.73;;;9.57;;
11004;SDS011;5555;59.622;16.556;2023-06-19T09:57:20;10.00;;;9.10;;
11004;SDS011;5555;59.622;16.556;2023-06-19T09:59:46;10.47;;;9.50;;
11004;SDS011;5555;59.622;16.556;2023-06-19T10:02:14;10.30;;;9.40;;
11004;SDS011;5555;59.622;16.556;2023-06-19T10:04:46;11.10;;;9.63;;
11004;SDS011;5555;59.622;16.556;2023-06-19T10:15:24;10.53;;;9.57;;
11004;SDS011;5555;59.622;16.556;2023-06-19T10:18:01;9.80;;;8.80;;
11004;SDS011;5555;59.622;16.556;2023-06-19T10:25:38;9.52;;;8.68;;
11004;SDS011;5555;59.622;16.556;2023-06-19T10:28:23;10.48;;;8.52;;
11004;SDS011;5555;59.622;16.556;2023-06-19T10:30:57;10.57;;;9.20;;
11004;SDS011;5555;59.622;16.556;2023-06-19T10:33:32;9.80;;;9.00;;
11004;SDS011;5555;59.622;16.556;2023-06-19T10:35:59;9.90;;;9.07;;
11004;SDS011;5555;59.622;16.556;2023-06-19T10:38:27;10.07;;;9.27;;
11004;SDS011;5555;59.622;16.556;2023-06-19T10:40:53;11.00;;;9.65;;
11004;SDS011;5555;59.622;16.556;2023-06-19T10:43:19;11.07;;;10.10;;
11004;SDS011;5555;59.622;16.556;2023-06-19T10:45:47;9.82;;;9.00;;
11004;SDS011;5555;59.622;16.556;2023-06-19T10:48:18;9.10;;;8.20;;
11004;SDS011;5555;59.622;16.556;2023-06-19T10:50:45;10.25;;;9.23;;
11004;SDS011;5555;59.622;16.556;2023-06-19T10:53:12;9.43;;;8.52;;
11004;SDS011;5555;59.622;16.556;2023-06-19T10:55:48;10.27;;;9.27;;
11004;SDS011;5555;59.622;16.556;2023-06-19T10:58:22;10.70;;;9.68;;
11004;SDS011;5555;59.622;16.556;2023-06-19T11:00:48;10.02;;;9.10;;
11004;SDS011;5555;59.622;16.556;2023-06-19T11:03:13;9.35;;;8.43;;
11004;SDS011;5555;59.622;16.556;2023-06-19T11:05:42;9.02;;;8.23;;
11004;SDS011;5555;59.622;16.556;2023-06-19T11:08:09;8.43;;;7.72;;
11004;SDS011;5555;59.622;16.556;2023-06-19T11:10:34;9.48;;;8.60;;
11004;SDS011;5555;59.622;16.556;2023-06-19T11:13:00;9.82;;;8.90;;
11004;SDS011;5555;59.622;16.556;2023-06-19T11:17:56;9.20;;;8.48;;
11004;SDS011;5555;59.622;16.556;2023-06-19T11:20:23;8.98;;;8.07;;
11004;SDS011;5555;59.622;16.556;2023-06-19T11:22:53;9.05;;;8.13;;
11004;SDS011;5555;59.622;16.556;2023-06-19T11:25:21;9.75;;;8.07;;
11004;SDS011;5555;59.622;16.556;2023-06-19T11:27:47;9.45;;;8.57;;
11004;SDS011;5555;59.622;16.556;2023-06-19T11:30:17;9.02;;;8.23;;
11004;SDS011;5555;59.622;16.556;2023-06-19T11:32:45;9.30;;;8.48;;
11004;SDS011;5555;59.622;16.556;2023-06-19T11:35:15;9.38;;;8.48;;
11004;SDS011;5555;59.622;16.556;2023-06-19T11:37:42;9.45;;;8.50;;
11004;SDS011;5555;59.622;16.556;2023-06-19T11:40:09;10.18;;;9.18;;
11004;SDS011;5555;59.622;16.556;2023-06-19T11:45:17;9.25;;;8.45;;
11004;SDS011;5555;59.622;16.556;2023-06-19T11:47:43;9.02;;;8.25;;
11004;SDS011;5555;59.622;16.556;2023-06-19T11:50:13;8.40;;;7.78;;
11004;SDS011;5555;59.622;16.556;2023-06-19T11:52:41;10.77;;;7.85;;
11004;SDS011;5555;59.622;16.556;2023-06-19T11:55:08;8.32;;;7.50;;
11004;SDS011;5555;59.622;16.556;2023-06-19T11:57:34;8.98;;;8.10;;
11004;SDS011;5555;59.622;16.556;2023-06-19T12:00:00;9.07;;;8.00;;
11004;SDS011;5555;59.622;16.556;2023-06-19T12:02:26;8.75;;;8.05;;
11004;SDS011;5555;59.622;16.556;2023-06-19T12:04:52;7.88;;;7.28;;
11004;SDS011;5555;59.622;16.556;2023-06-19T12:07:18;9.55;;;6.97;;
11004;SDS011;5555;59.622;16.556;2023-06-19T12:09:44;8.45;;;7.75;;
11004;SDS011;5555;59.622;16.556;2023-06-19T12:12:10;8.15;;;7.45;;
11004;SDS011;5555;59.622;16.556;2023-06-19T12:14:36;8.40;;;7.68;;
11004;SDS011;5555;59.622;16.556;2023-06-19T12:17:02;7.40;;;6.80;;
11004;SDS011;5555;59.622;16.556;2023-06-19T12:19:28;7.95;;;7.18;;
11004;SDS011;5555;59.622;16.556;2023-06-19T12:21:53;7.45;;;6.82;;
11004;SDS011;5555;59.622;16.556;2023-06-19T12:24:19;7.50;;;6.90;;
11004;SDS011;5555;59.622;16.556;2023-06-19T12:26:45;8.18;;;7.38;;
11004;SDS011;5555;59.622;16.556;2023-06-19T12:29:10;8.43;;;7.72;;
11004;SDS011;5555;59.622;16.556;2023-06-19T12:31:36;8.27;;;7.63;;
11004;SDS011;5555;59.622;16.556;2023-06-19T12:34:02;9.38;;;7.18;;
11004;SDS011;5555;59.622;16.556;2023-06-19T12:36:28;8.18;;;7.38;;
11004;SDS011;5555;59.622;16.556;2023-06-19T12:38:56;8.75;;;7.80;;
11004;SDS011;5555;59.622;16.556;2023-06-19T12:41:23;8.52;;;7.60;;
11004;SDS011;5555;59.622;16.556;2023-06-19T12:43:49;8.35;;;7.70;;
11004;SDS011;5555;59.622;16.556;2023-06-19T12:46:14;8.40;;;7.70;;
11004;SDS011;5555;59.622;16.556;2023-06-19T12:48:43;8.45;;;7.82;;
11004;SDS011;5555;59.622;16.556;2023-06-19T12:51:09;8.95;;;8.15;;
11004;SDS011;5555;59.622;16.556;2023-06-19T12:53:34;8.65;;;7.63;;
11004;SDS011;5555;59.622;16.556;2023-06-19T12:56:00;8.13;;;7.38;;
11004;SDS011;5555;59.622;16.556;2023-06-19T12:58:26;8.27;;;7.57;;
11004;SDS011;5555;59.622;16.556;2023-06-19T13:00:52;8.57;;;7.75;;
11004;SDS011;5555;59.622;16.556;2023-06-19T13:03:18;8.93;;;8.05;;
11004;SDS011;5555;59.622;16.556;2023-06-19T13:05:45;8.55;;;7.75;;
11004;SDS011;5555;59.622;16.556;2023-06-19T13:08:11;9.10;;;8.38;;
11004;SDS011;5555;59.622;16.556;2023-06-19T13:10:37;8.40;;;7.63;;
11004;SDS011;5555;59.622;16.556;2023-06-19T13:13:03;8.32;;;7.55;;
11004;SDS011;5555;59.622;16.556;2023-06-19T13:15:30;9.68;;;7.78;;
11004;SDS011;5555;59.622;16.556;2023-06-19T13:17:58;8.50;;;7.65;;
11004;SDS011;5555;59.622;16.556;2023-06-19T13:20:24;7.75;;;7.05;;
11004;SDS011;5555;59.622;16.556;2023-06-19T13:22:50;8.10;;;7.30;;
11004;SDS011;5555;59.622;16.556;2023-06-19T13:25:16;8.88;;;7.97;;
11004;SDS011;5555;59.622;16.556;2023-06-19T13:27:43;8.77;;;8.15;;
11004;SDS011;5555;59.622;16.556;2023-06-19T13:30:09;8.80;;;7.85;;
11004;SDS011;5555;59.622;16.556;2023-06-19T13:32:35;9.05;;;8.25;;
11004;SDS011;5555;59.622;16.556;2023-06-19T13:35:01;8.10;;;7.47;;
11004;SDS011;5555;59.622;16.556;2023-06-19T13:37:27;8.47;;;7.77;;
11004;SDS011;5555;59.622;16.556;2023-06-19T13:39:52;9.57;;;8.70;;
11004;SDS011;5555;59.622;16.556;2023-06-19T13:42:18;8.87;;;8.07;;
11004;SDS011;5555;59.622;16.556;2023-06-19T13:44:43;9.57;;;8.73;;
11004;SDS011;5555;59.622;16.556;2023-06-19T13:47:09;9.80;;;8.83;;
11004;SDS011;5555;59.622;16.556;2023-06-19T13:49:35;9.23;;;8.27;;
11004;SDS011;5555;59.622;16.556;2023-06-19T13:52:00;9.60;;;8.90;;
11004;SDS011;5555;59.622;16.556;2023-06-19T13:54:26;9.23;;;8.43;;
11004;SDS011;5555;59.622;16.556;2023-06-19T13:56:52;9.60;;;8.77;;
11004;SDS011;5555;59.622;16.556;2023-06-19T13:59:17;10.47;;;9.60;;
11004;SDS011;5555;59.622;16.556;2023-06-19T14:01:43;9.20;;;8.40;;
11004;SDS011;5555;59.622;16.556;2023-06-19T14:04:09;9.77;;;8.90;;
11004;SDS011;5555;59.622;16.556;2023-06-19T14:06:34;9.27;;;8.57;;
11004;SDS011;5555;59.622;16.556;2023-06-19T14:09:03;10.23;;;9.43;;
11004;SDS011;5555;59.622;16.556;2023-06-19T14:11:28;10.60;;;9.70;;
11004;SDS011;5555;59.622;16.556;2023-06-19T14:13:54;9.73;;;8.93;;
11004;SDS011;5555;59.622;16.556;2023-06-19T14:16:20;10.73;;;9.60;;
11004;SDS011;5555;59.622;16.556;2023-06-19T14:18:46;10.80;;;9.87;;
11004;SDS011;5555;59.622;16.556;2023-06-19T14:21:12;10.67;;;9.87;;
11004;SDS011;5555;59.622;16.556;2023-06-19T14:23:37;10.87;;;9.97;;
11004;SDS011;5555;59.622;16.556;2023-06-19T14:26:08;10.90;;;9.93;;
11004;SDS011;5555;59.622;16.556;2023-06-19T14:28:34;10.63;;;9.83;;
11004;SDS011;5555;59.622;16.556;2023-06-19T14:31:01;10.60;;;9.70;;
11004;SDS011;5555;59.622;16.556;2023-06-19T14:33:27;10.73;;;9.93;;
11004;SDS011;5555;59.622;16.556;2023-06-19T14:35:52;11.50;;;10.50;;
11004;SDS011;5555;59.622;16.556;2023-06-19T14:38:18;11.17;;;10.27;;
11004;SDS011;5555;59.622;16.556;2023-06-19T14:40:44;10.90;;;10.00;;
11004;SDS011;5555;59.622;16.556;2023-06-19T14:43:11;11.20;;;10.23;;
11004;SDS011;5555;59.622;16.556;2023-06-19T14:45:36;11.33;;;10.40;;
11004;SDS011;5555;59.622;16.556;2023-06-19T14:48:04;11.27;;;10.40;;
11004;SDS011;5555;59.622;16.556;2023-06-19T14:50:30;11.77;;;10.57;;
11004;SDS011;5555;59.622;16.556;2023-06-19T14:52:55;11.43;;;10.30;;
11004;SDS011;5555;59.622;16.556;2023-06-19T14:55:21;10.77;;;9.87;;